createdAt,value
2023-02-01T00:02:55.656Z,2.58
2023-02-01T00:07:57.089Z,2.38
2023-02-01T00:12:58.539Z,2.65
2023-02-01T00:17:59.964Z,4.43
2023-02-01T00:23:01.396Z,2.83
2023-02-01T00:28:02.902Z,3.92
2023-02-01T00:33:04.352Z,5.45
2023-02-01T00:38:05.762Z,1.67
2023-02-01T00:43:07.200Z,3.53
2023-02-01T00:48:08.622Z,3.75
2023-02-01T00:53:11.113Z,2.30
2023-02-01T00:58:12.697Z,2.80
2023-02-01T01:03:20.036Z,2.42
2023-02-01T01:08:21.462Z,4.53
2023-02-01T01:13:23.416Z,6.03
2023-02-01T01:18:24.945Z,5.70
2023-02-01T01:23:26.791Z,4.95
2023-02-01T01:28:28.211Z,5.10
2023-02-01T01:33:29.645Z,4.43
2023-02-01T01:38:31.078Z,3.92
2023-02-01T01:43:50.462Z,3.63
2023-02-01T01:49:01.547Z,23.92
2023-02-01T01:54:16.340Z,14.07
2023-02-01T01:59:18.446Z,10.90
2023-02-01T02:04:20.843Z,12.52
2023-02-01T02:09:22.701Z,10.02
2023-02-01T02:14:26.960Z,7.88
2023-02-01T02:19:47.003Z,5.78
2023-02-01T02:25:25.678Z,5.60
2023-02-01T02:30:48.765Z,8.37
2023-02-01T02:35:56.077Z,9.05
2023-02-01T02:41:08.497Z,9.52
2023-02-01T02:47:10.009Z,7.25
2023-02-01T02:52:38.822Z,10.52
2023-02-01T02:58:02.411Z,7.75
2023-02-01T03:03:22.644Z,7.45
2023-02-01T03:08:28.136Z,12.13
2023-02-01T03:13:39.347Z,7.43
2023-02-01T03:18:51.927Z,9.63
2023-02-01T03:23:57.129Z,7.63
2023-02-01T03:29:06.661Z,10.15
2023-02-01T03:39:28.067Z,6.80
2023-02-01T03:44:35.376Z,8.90
2023-02-01T03:49:44.631Z,5.97
2023-02-01T03:54:47.369Z,6.13
2023-02-01T03:59:49.059Z,8.20
2023-02-01T04:04:50.547Z,9.77
2023-02-01T04:09:52.055Z,6.68
2023-02-01T04:14:53.487Z,9.95
2023-02-01T04:19:55.591Z,11.70
2023-02-01T04:24:57.122Z,13.75
2023-02-01T04:29:58.694Z,21.60
2023-02-01T04:35:00.147Z,33.53
2023-02-01T04:40:01.693Z,18.90
2023-02-01T04:45:03.658Z,11.63
2023-02-01T04:50:06.772Z,10.25
2023-02-01T04:55:08.684Z,7.63
2023-02-01T05:00:11.098Z,8.23
2023-02-01T05:05:12.529Z,8.77
2023-02-01T05:10:16.938Z,6.93
2023-02-01T05:15:18.393Z,9.18
2023-02-01T05:20:19.877Z,8.50
2023-02-01T05:25:21.534Z,9.93
2023-02-01T05:30:23.209Z,9.02
2023-02-01T05:35:24.874Z,11.05
2023-02-01T05:40:26.397Z,12.65
2023-02-01T05:45:27.907Z,8.70
2023-02-01T05:50:29.375Z,4.57
2023-02-01T05:55:30.858Z,8.77
2023-02-01T06:00:32.757Z,9.98
2023-02-01T06:05:34.207Z,7.38
2023-02-01T06:10:35.700Z,9.70
2023-02-01T06:15:38.468Z,31.20
2023-02-01T06:20:40.386Z,37.97
2023-02-01T06:25:41.810Z,20.83
2023-02-01T06:30:46.937Z,18.67
2023-02-01T06:35:48.756Z,13.73
2023-02-01T06:40:54.293Z,14.48
2023-02-01T06:46:02.267Z,10.80
2023-02-01T06:51:04.059Z,10.73
2023-02-01T06:56:05.634Z,6.65
2023-02-01T07:01:08.715Z,11.32
2023-02-01T07:06:10.744Z,9.77
2023-02-01T07:11:14.771Z,10.05
2023-02-01T07:16:21.786Z,8.98
2023-02-01T07:21:23.412Z,7.32
2023-02-01T07:26:24.849Z,14.30
2023-02-01T07:31:27.491Z,7.78
2023-02-01T07:36:29.238Z,5.15
2023-02-01T07:41:30.674Z,7.22
2023-02-01T07:46:32.114Z,7.70
2023-02-01T07:51:33.535Z,11.02
2023-02-01T07:56:34.978Z,19.35
2023-02-01T08:01:36.566Z,12.73
2023-02-01T08:06:38.074Z,16.85
2023-02-01T08:11:39.603Z,19.20
2023-02-01T08:16:41.152Z,14.88
2023-02-01T08:21:42.612Z,18.55
2023-02-01T08:26:44.082Z,21.83
2023-02-01T08:31:45.583Z,15.77
2023-02-01T08:36:47.109Z,18.77
2023-02-01T08:42:08.494Z,13.30
2023-02-01T08:47:09.922Z,15.98
2023-02-01T08:52:15.991Z,20.90
2023-02-01T08:57:18.135Z,23.75
2023-02-01T09:02:19.879Z,30.48
2023-02-01T09:07:21.297Z,23.58
2023-02-01T09:12:23.984Z,15.30
2023-02-01T09:17:26.155Z,8.63
2023-02-01T09:22:27.593Z,8.75
2023-02-01T09:27:29.268Z,7.38
2023-02-01T09:32:30.685Z,9.85
2023-02-01T09:37:32.132Z,6.43
2023-02-01T09:43:02.742Z,9.40
2023-02-01T09:48:20.985Z,6.43
2023-02-01T09:54:03.830Z,9.50
2023-02-01T09:59:20.242Z,10.52
2023-02-01T10:04:21.810Z,19.08
2023-02-01T10:10:01.322Z,19.38
2023-02-01T10:15:23.487Z,15.00
2023-02-01T10:20:31.289Z,6.82
2023-02-01T10:25:35.655Z,6.85
2023-02-01T10:30:45.338Z,5.25
2023-02-01T10:35:51.447Z,6.97
2023-02-01T10:40:56.163Z,6.82
2023-02-01T10:45:58.285Z,9.45
2023-02-01T10:51:03.489Z,8.20
2023-02-01T10:56:13.180Z,8.32
2023-02-01T11:01:29.564Z,16.27
2023-02-01T11:06:34.759Z,10.70
2023-02-01T11:12:02.522Z,9.52
2023-02-01T11:17:16.051Z,13.63
2023-02-01T11:22:18.743Z,10.95
2023-02-01T11:27:27.533Z,8.60
2023-02-01T11:32:29.542Z,6.88
2023-02-01T11:37:41.076Z,5.32
2023-02-01T11:42:55.773Z,5.57
2023-02-01T11:47:59.093Z,7.50
2023-02-01T11:53:37.938Z,13.57
2023-02-01T11:58:50.884Z,7.28
2023-02-01T12:04:07.513Z,6.38
2023-02-01T12:09:14.822Z,6.00
2023-02-01T12:14:32.884Z,5.45
2023-02-01T12:20:04.270Z,6.32
2023-02-01T12:25:17.887Z,10.48
2023-02-01T12:30:45.973Z,4.82
2023-02-01T12:36:09.454Z,5.30
2023-02-01T12:41:17.325Z,6.72
2023-02-01T12:46:37.424Z,4.47
2023-02-01T12:51:44.221Z,4.57
2023-02-01T12:57:04.045Z,6.25
2023-02-01T13:02:26.196Z,4.28
2023-02-01T13:07:35.047Z,3.47
2023-02-01T13:12:43.289Z,2.60
2023-02-01T13:17:47.355Z,3.80
2023-02-01T13:22:58.920Z,3.38
2023-02-01T13:28:11.941Z,4.57
2023-02-01T13:33:55.594Z,3.92
2023-02-01T13:39:05.040Z,6.47
2023-02-01T13:44:15.438Z,6.88
2023-02-01T13:49:23.161Z,5.25
2023-02-01T13:54:33.717Z,6.55
2023-02-01T13:59:51.741Z,6.45
2023-02-01T14:04:53.949Z,7.20
2023-02-01T14:09:55.940Z,10.27
2023-02-01T14:15:19.851Z,15.95
2023-02-01T14:20:41.734Z,15.85
2023-02-01T14:25:44.060Z,18.75
2023-02-01T14:30:47.920Z,9.63
2023-02-01T14:36:06.101Z,7.65
2023-02-01T14:41:26.741Z,7.95
2023-02-01T14:47:08.716Z,10.00
2023-02-01T14:52:16.610Z,5.68
2023-02-01T14:57:21.506Z,9.32
2023-02-01T15:02:27.642Z,8.45
2023-02-01T15:07:30.248Z,12.38
2023-02-01T15:12:34.098Z,6.40
2023-02-01T15:17:35.563Z,14.82
2023-02-01T15:22:37.041Z,8.15
2023-02-01T15:27:38.517Z,7.05
2023-02-01T15:32:41.229Z,12.60
2023-02-01T15:37:42.640Z,13.70
2023-02-01T15:42:53.013Z,13.85
2023-02-01T15:47:57.795Z,9.93
2023-02-01T15:52:59.409Z,13.63
2023-02-01T15:58:00.985Z,9.77
2023-02-01T16:03:07.154Z,10.40
2023-02-01T16:08:15.310Z,9.52
2023-02-01T16:13:21.067Z,9.95
2023-02-01T16:18:22.524Z,7.53
2023-02-01T16:23:23.985Z,7.57
2023-02-01T16:28:25.779Z,8.07
2023-02-01T16:33:27.802Z,7.80
2023-02-01T16:38:29.462Z,11.73
2023-02-01T16:43:31.437Z,9.70
2023-02-01T16:48:36.637Z,13.30
2023-02-01T16:53:53.036Z,13.10
2023-02-01T16:58:55.563Z,18.60
2023-02-01T17:03:57.222Z,25.88
2023-02-01T17:09:00.383Z,17.83
2023-02-01T17:14:14.619Z,17.15
2023-02-01T17:19:20.311Z,29.42
2023-02-01T17:24:25.933Z,18.75
2023-02-01T17:29:30.551Z,23.13
2023-02-01T17:34:32.120Z,20.40
2023-02-01T17:39:52.143Z,21.17
2023-02-01T17:44:58.322Z,19.98
2023-02-01T17:49:59.816Z,15.07
2023-02-01T17:55:01.777Z,11.70
2023-02-01T18:00:04.355Z,12.98
2023-02-01T18:05:20.507Z,11.60
2023-02-01T18:10:21.939Z,10.20
2023-02-01T18:15:26.192Z,23.90
2023-02-01T18:20:28.410Z,22.67
2023-02-01T18:25:37.058Z,29.73
2023-02-01T18:30:38.642Z,51.20
2023-02-01T18:35:40.585Z,12.95
2023-02-01T18:40:53.637Z,15.60
2023-02-01T18:45:55.595Z,14.45
2023-02-01T18:50:57.796Z,9.00
2023-02-01T18:55:59.641Z,8.35
2023-02-01T19:01:06.372Z,5.93
2023-02-01T19:06:08.402Z,7.65
2023-02-01T19:11:10.435Z,6.13
2023-02-01T19:16:13.615Z,9.55
2023-02-01T19:21:15.553Z,8.73
2023-02-01T19:26:18.101Z,10.90
2023-02-01T19:31:19.702Z,8.73
2023-02-01T19:36:21.197Z,7.47
2023-02-01T19:41:22.625Z,7.35
2023-02-01T19:46:24.487Z,8.00
2023-02-01T19:51:25.918Z,5.95
2023-02-01T19:56:27.504Z,5.53
2023-02-01T20:01:28.187Z,5.03
2023-02-01T20:06:30.839Z,4.95
2023-02-01T20:11:32.491Z,3.15
2023-02-01T20:16:34.063Z,6.60
2023-02-01T20:21:37.247Z,4.57
2023-02-01T20:26:40.149Z,4.85
2023-02-01T20:31:41.797Z,4.82
2023-02-01T20:36:43.397Z,6.80
2023-02-01T20:41:44.826Z,8.13
2023-02-01T20:46:47.561Z,29.55
2023-02-01T20:51:49.054Z,23.17
2023-02-01T20:56:50.534Z,19.15
2023-02-01T21:01:53.234Z,18.52
2023-02-01T21:06:55.724Z,15.00
2023-02-01T21:11:57.217Z,20.30
2023-02-01T21:16:58.659Z,19.60
2023-02-01T21:22:00.067Z,15.20
2023-02-01T21:27:01.538Z,12.25
2023-02-01T21:32:03.411Z,8.50
2023-02-01T21:37:05.219Z,10.30
2023-02-01T21:42:17.638Z,8.77
2023-02-01T21:47:21.337Z,9.13
2023-02-01T21:52:28.017Z,5.18
2023-02-01T21:57:29.628Z,6.93
2023-02-01T22:02:31.077Z,6.30
2023-02-01T22:07:35.733Z,7.20
2023-02-01T22:12:37.153Z,7.95
2023-02-01T22:17:38.629Z,6.82
2023-02-01T22:22:40.077Z,9.43
2023-02-01T22:28:32.297Z,5.55
2023-02-01T22:33:03.382Z,7.05
2023-02-01T22:38:04.806Z,3.72
2023-02-01T22:43:06.282Z,6.13
2023-02-01T22:48:07.783Z,7.43
2023-02-01T22:53:09.343Z,8.20
2023-02-01T22:58:10.769Z,5.70
2023-02-01T23:03:12.220Z,7.03
2023-02-01T23:08:13.659Z,4.75
2023-02-01T23:13:15.129Z,5.57
2023-02-01T23:18:16.554Z,8.65
2023-02-01T23:23:17.947Z,7.13
2023-02-01T23:28:19.383Z,5.85
2023-02-01T23:33:25.735Z,5.40
2023-02-01T23:38:27.671Z,6.75
2023-02-01T23:43:47.997Z,6.45
2023-02-01T23:48:51.456Z,5.15
2023-02-01T23:53:53.823Z,7.32
2023-02-01T23:58:56.696Z,9.50
